Time;durP1;ratioP1;P1;durP2;ratioP2;P2;SDS_P1;SDS_P2;PMS_P1;PMS_P2;Temp;Humidity;BMP_temperature;BMP_pressure;BME280_temperature;BME280_humidity;BME280_pressure;Samples;Min_cycle;Max_cycle;Signal;HPM_P1;HPM_P2
2023/06/25 00:01:59;;;;;;;;;;;;;;;;;;4897756;29;19914;-85
2023/06/25 00:04:26;;;;;;;;;;;;;;;;;;4897995;29;20379;-85
2023/06/25 00:06:52;;;;;;;;;;;;;;;;;;4897984;29;20296;-85
2023/06/25 00:09:18;;;;;;;;;;;;;;;;;;4881598;29;19916;-85
2023/06/25 00:11:44;;;;;;;;;;;;;;;;;;4881406;29;19911;-84
2023/06/25 00:14:10;;;;;;;;;;;;;;;;;;4897977;29;19912;-85
2023/06/25 00:16:36;;;;;;;;;;;;;;;;;;4897608;29;19911;-84
2023/06/25 00:19:03;;;;;;;;;;;;;;;;;;4897861;29;19911;-84
2023/06/25 00:21:29;;;;;;;;;;;;;;;;;;4881180;29;19974;-84
2023/06/25 00:23:55;;;;;;;;;;;;;;;;;;4897579;29;20299;-84
2023/06/25 00:26:22;;;;;;;;;;;;;;;;;;4898014;29;20004;-85
2023/06/25 00:28:48;;;;;;;;;;;;;;;;;;4897551;29;20284;-85
2023/06/25 00:31:14;;;;;;;;;;;;;;;;;;4897624;29;20344;-85
2023/06/25 00:33:40;;;;;;;;;;;;;;;;;;4898100;29;19933;-85
2023/06/25 00:36:07;;;;;;;;;;;;;;;;;;4898091;29;19907;-85
2023/06/25 00:38:33;;;;;;;;;;;;;;;;;;4900286;29;19962;-84
2023/06/25 00:40:59;;;;;;;;;;;;;;;;;;4901825;29;19912;-84
2023/06/25 00:43:25;;;;;;;;;;;;;;;;;;4901049;29;19911;-84
2023/06/25 00:45:52;;;;;;;;;;;;;;;;;;4901435;29;19917;-85
2023/06/25 00:48:21;;;;;;;;;;;;;;;;;;4901413;29;19927;-85
2023/06/25 00:50:47;;;;;;;;;;;;;;;;;;4901347;29;20277;-85
2023/06/25 00:53:14;;;;;;;;;;;;;;;;;;4901299;29;19918;-84
2023/06/25 00:55:40;;;;;;;;;;;;;;;;;;4901071;29;19915;-85
2023/06/25 00:58:06;;;;;;;;;;;;;;;;;;4900956;29;20295;-84
2023/06/25 01:00:33;;;;;;;;;;;;;;;;;;4901425;29;19907;-84
2023/06/25 01:03:03;;;;;;;;;;;;;;;;;;4901207;29;19911;-85
2023/06/25 01:05:30;;;;;;;;;;;;;;;;;;4901170;29;20385;-84
2023/06/25 01:07:57;;;;;;;;;;;;;;;;;;4901272;29;19907;-84
2023/06/25 01:10:23;;;;;;;;;;;;;;;;;;4901063;29;20357;-84
2023/06/25 01:12:49;;;;;;;;;;;;;;;;;;4884058;29;19971;-84
2023/06/25 01:15:15;;;;;;;;;;;;;;;;;;4900930;29;19914;-84
2023/06/25 01:17:42;;;;;;;;;;;;;;;;;;4900872;29;19907;-84
2023/06/25 01:20:15;;;;;;;;;;;;;;;;;;4900799;29;19926;-84
2023/06/25 01:22:41;;;;;;;;;;;;;;;;;;4900613;29;19921;-84
2023/06/25 01:25:07;;;;;;;;;;;;;;;;;;4900665;29;19915;-84
2023/06/25 01:27:34;;;;;;;;;;;;;;;;;;4900340;29;19914;-84
2023/06/25 01:30:00;;;;;;;;;;;;;;;;;;4900635;29;19913;-84
2023/06/25 01:32:26;;;;;;;;;;;;;;;;;;4900304;29;19967;-84
2023/06/25 01:34:52;;;;;;;;;;;;;;;;;;4900723;29;19911;-84
2023/06/25 01:37:18;;;;;;;;;;;;;;;;;;4900582;29;20354;-84
2023/06/25 01:39:45;;;;;;;;;;;;;;;;;;4900752;29;19907;-84
2023/06/25 01:42:11;;;;;;;;;;;;;;;;;;4900210;29;19912;-84
2023/06/25 01:44:39;;;;;;;;;;;;;;;;;;4900275;29;19937;-84
2023/06/25 01:47:05;;;;;;;;;;;;;;;;;;4900655;29;19913;-84
2023/06/25 01:49:31;;;;;;;;;;;;;;;;;;4899610;29;19935;-83
2023/06/25 01:51:57;;;;;;;;;;;;;;;;;;4900579;29;19908;-85
2023/06/25 01:54:24;;;;;;;;;;;;;;;;;;4900557;29;19930;-84
2023/06/25 01:56:50;;;;;;;;;;;;;;;;;;4899815;29;19908;-84
2023/06/25 01:59:16;;;;;;;;;;;;;;;;;;4900190;29;20016;-84
2023/06/25 02:01:42;;;;;;;;;;;;;;;;;;4900123;29;19908;-84
2023/06/25 02:04:08;;;;;;;;;;;;;;;;;;4900132;29;19921;-84
2023/06/25 02:06:35;;;;;;;;;;;;;;;;;;4900023;29;19908;-83
2023/06/25 02:09:01;;;;;;;;;;;;;;;;;;4899906;29;19914;-84
2023/06/25 02:11:27;;;;;;;;;;;;;;;;;;4899840;29;19911;-83
2023/06/25 02:13:53;;;;;;;;;;;;;;;;;;4883175;29;19907;-84
2023/06/25 02:16:19;;;;;;;;;;;;;;;;;;4899852;29;19908;-83
2023/06/25 02:18:46;;;;;;;;;;;;;;;;;;4899752;29;20364;-84
2023/06/25 02:21:12;;;;;;;;;;;;;;;;;;4899886;29;19908;-83
2023/06/25 02:23:38;;;;;;;;;;;;;;;;;;4899676;29;19919;-84
2023/06/25 02:26:04;;;;;;;;;;;;;;;;;;4899271;29;20312;-84
2023/06/25 02:28:30;;;;;;;;;;;;;;;;;;4899565;29;19912;-83
2023/06/25 02:30:57;;;;;;;;;;;;;;;;;;4899418;29;19907;-84
2023/06/25 02:33:23;;;;;;;;;;;;;;;;;;4899785;29;19933;-83
2023/06/25 02:35:49;;;;;;;;;;;;;;;;;;4899771;29;19907;-84
2023/06/25 02:38:15;;;;;;;;;;;;;;;;;;4883068;29;19907;-84
2023/06/25 02:40:41;;;;;;;;;;;;;;;;;;4899023;29;19914;-84
2023/06/25 02:43:07;;;;;;;;;;;;;;;;;;4899312;29;19965;-84
2023/06/25 02:45:34;;;;;;;;;;;;;;;;;;4899328;29;20280;-83
2023/06/25 02:48:00;;;;;;;;;;;;;;;;;;4899561;29;19907;-83
2023/06/25 02:50:26;;;;;;;;;;;;;;;;;;4899245;29;19963;-83
2023/06/25 02:52:52;;;;;;;;;;;;;;;;;;4899198;29;20364;-84
2023/06/25 02:55:18;;;;;;;;;;;;;;;;;;4899070;29;19982;-83
2023/06/25 02:57:44;;;;;;;;;;;;;;;;;;4882159;29;19920;-83
2023/06/25 03:00:11;;;;;;;;;;;;;;;;;;4899038;29;19907;-83
2023/06/25 03:02:37;;;;;;;;;;;;;;;;;;4898946;29;19912;-83
2023/06/25 03:05:03;;;;;;;;;;;;;;;;;;4899300;29;19908;-83
2023/06/25 03:07:29;;;;;;;;;;;;;;;;;;4898938;29;19913;-83
2023/06/25 03:09:55;;;;;;;;;;;;;;;;;;4881691;29;19930;-83
2023/06/25 03:12:22;;;;;;;;;;;;;;;;;;4899026;29;19914;-83
2023/06/25 03:14:48;;;;;;;;;;;;;;;;;;4898725;29;19931;-83
2023/06/25 03:17:15;;;;;;;;;;;;;;;;;;4898735;29;19930;-83
2023/06/25 03:19:41;;;;;;;;;;;;;;;;;;4898930;29;19911;-83
2023/06/25 03:22:07;;;;;;;;;;;;;;;;;;4898584;29;19907;-83
2023/06/25 03:24:33;;;;;;;;;;;;;;;;;;4898323;29;19926;-83
2023/06/25 03:26:59;;;;;;;;;;;;;;;;;;4898475;29;19914;-83
2023/06/25 03:29:25;;;;;;;;;;;;;;;;;;4898524;29;20280;-83
2023/06/25 03:31:52;;;;;;;;;;;;;;;;;;4881438;29;19907;-83
2023/06/25 03:34:18;;;;;;;;;;;;;;;;;;4898396;29;19923;-83
2023/06/25 03:36:44;;;;;;;;;;;;;;;;;;4898398;29;19919;-82
2023/06/25 03:39:10;;;;;;;;;;;;;;;;;;4898357;29;20235;-83
2023/06/25 03:41:37;;;;;;;;;;;;;;;;;;4898370;29;20291;-83
2023/06/25 03:44:03;;;;;;;;;;;;;;;;;;4898559;29;19911;-83
2023/06/25 03:46:29;;;;;;;;;;;;;;;;;;4898343;29;19913;-82
2023/06/25 03:48:55;;;;;;;;;;;;;;;;;;4898275;29;20357;-82
2023/06/25 03:51:21;;;;;;;;;;;;;;;;;;4898241;29;19962;-83
2023/06/25 03:53:47;;;;;;;;;;;;;;;;;;4897823;29;19926;-82
2023/06/25 03:56:14;;;;;;;;;;;;;;;;;;4898472;29;19919;-82
2023/06/25 03:58:40;;;;;;;;;;;;;;;;;;4898230;29;19914;-83
2023/06/25 04:01:06;;;;;;;;;;;;;;;;;;4881213;29;19908;-83
2023/06/25 04:03:32;;;;;;;;;;;;;;;;;;4898306;29;19908;-82
2023/06/25 04:05:58;;;;;;;;;;;;;;;;;;4898112;29;20369;-82
2023/06/25 04:08:25;;;;;;;;;;;;;;;;;;4897659;29;19930;-83
2023/06/25 04:10:51;;;;;;;;;;;;;;;;;;4898087;29;20387;-83
2023/06/25 04:13:17;;;;;;;;;;;;;;;;;;4897603;29;19907;-83
2023/06/25 04:15:43;;;;;;;;;;;;;;;;;;4897982;29;19907;-82
2023/06/25 04:18:09;;;;;;;;;;;;;;;;;;4898080;29;19911;-82
2023/06/25 04:20:35;;;;;;;;;;;;;;;;;;4897769;29;20280;-83
2023/06/25 04:23:02;;;;;;;;;;;;;;;;;;4897549;29;19920;-82
2023/06/25 04:25:28;;;;;;;;;;;;;;;;;;4897988;29;19908;-83
2023/06/25 04:27:55;;;;;;;;;;;;;;;;;;4897665;29;19915;-82
2023/06/25 04:30:21;;;;;;;;;;;;;;;;;;4897865;29;19907;-82
2023/06/25 04:32:49;;;;;;;;;;;;;;;;;;4897663;29;19908;-83
2023/06/25 04:35:15;;;;;;;;;;;;;;;;;;4897680;29;19919;-77
2023/06/25 04:37:41;;;;;;;;;;;;;;;;;;4897839;29;19911;-82
2023/06/25 04:40:08;;;;;;;;;;;;;;;;;;4881017;29;20333;-82
2023/06/25 04:42:34;;;;;;;;;;;;;;;;;;4897955;29;19918;-83
2023/06/25 04:45:00;;;;;;;;;;;;;;;;;;4897664;29;19918;-83
2023/06/25 04:47:26;;;;;;;;;;;;;;;;;;4897710;29;19907;-82
2023/06/25 04:49:52;;;;;;;;;;;;;;;;;;4897416;29;19912;-82
2023/06/25 04:52:19;;;;;;;;;;;;;;;;;;4881181;29;19918;-82
2023/06/25 04:54:45;;;;;;;;;;;;;;;;;;4897640;29;19922;-83
2023/06/25 04:57:11;;;;;;;;;;;;;;;;;;4897609;29;19907;-83
2023/06/25 04:59:37;;;;;;;;;;;;;;;;;;4880880;29;20280;-83
2023/06/25 05:02:04;;;;;;;;;;;;;;;;;;4897569;29;20304;-83
2023/06/25 05:04:30;;;;;;;;;;;;;;;;;;4897194;29;19914;-83
2023/06/25 05:06:56;;;;;;;;;;;;;;;;;;4897581;29;19907;-83
2023/06/25 05:09:22;;;;;;;;;;;;;;;;;;4897531;29;19908;-83
2023/06/25 05:11:48;;;;;;;;;;;;;;;;;;4880656;29;19907;-83
2023/06/25 05:14:14;;;;;;;;;;;;;;;;;;4897577;29;20354;-83
2023/06/25 05:16:41;;;;;;;;;;;;;;;;;;4897800;29;19907;-83
2023/06/25 05:19:07;;;;;;;;;;;;;;;;;;4897348;29;19918;-83
2023/06/25 05:21:33;;;;;;;;;;;;;;;;;;4897456;29;19907;-83
2023/06/25 05:23:59;;;;;;;;;;;;;;;;;;4880530;29;19926;-83
2023/06/25 05:26:25;;;;;;;;;;;;;;;;;;4900566;29;19907;-83
2023/06/25 05:28:52;;;;;;;;;;;;;;;;;;4901054;29;19907;-83
2023/06/25 05:31:18;;;;;;;;;;;;;;;;;;4900747;29;19915;-83
2023/06/25 05:33:44;;;;;;;;;;;;;;;;;;4900367;29;19919;-83
2023/06/25 05:36:10;;;;;;;;;;;;;;;;;;4883852;29;19918;-83
2023/06/25 05:38:36;;;;;;;;;;;;;;;;;;4883734;29;20364;-83
2023/06/25 05:41:02;;;;;;;;;;;;;;;;;;4900534;29;20385;-83
2023/06/25 05:43:29;;;;;;;;;;;;;;;;;;4900776;29;19908;-83
2023/06/25 05:45:55;;;;;;;;;;;;;;;;;;4900524;29;19908;-83
2023/06/25 05:48:21;;;;;;;;;;;;;;;;;;4900134;29;19914;-83
2023/06/25 05:50:47;;;;;;;;;;;;;;;;;;4883457;29;19911;-83
2023/06/25 05:53:13;;;;;;;;;;;;;;;;;;4900244;29;19918;-83
2023/06/25 05:55:40;;;;;;;;;;;;;;;;;;4900300;29;19954;-83
2023/06/25 05:58:06;;;;;;;;;;;;;;;;;;4900239;29;19908;-83
2023/06/25 06:00:32;;;;;;;;;;;;;;;;;;4900207;29;19907;-83
2023/06/25 06:02:58;;;;;;;;;;;;;;;;;;4899871;29;19907;-83
2023/06/25 06:05:24;;;;;;;;;;;;;;;;;;4900165;29;19915;-83
2023/06/25 06:07:51;;;;;;;;;;;;;;;;;;4900265;29;19912;-83
2023/06/25 06:10:17;;;;;;;;;;;;;;;;;;4899932;29;19959;-83
2023/06/25 06:12:43;;;;;;;;;;;;;;;;;;4899922;29;19954;-83
2023/06/25 06:15:09;;;;;;;;;;;;;;;;;;4899821;29;19916;-83
2023/06/25 06:17:36;;;;;;;;;;;;;;;;;;4899848;29;19907;-83
2023/06/25 06:20:03;;;;;;;;;;;;;;;;;;4899891;29;19907;-83
2023/06/25 06:22:29;;;;;;;;;;;;;;;;;;4899313;29;19921;-84
2023/06/25 06:24:55;;;;;;;;;;;;;;;;;;4900096;29;19915;-83
2023/06/25 06:27:21;;;;;;;;;;;;;;;;;;4899482;29;19912;-83
2023/06/25 06:29:47;;;;;;;;;;;;;;;;;;4899696;29;19907;-84
2023/06/25 06:32:14;;;;;;;;;;;;;;;;;;4899048;29;19907;-83
2023/06/25 06:34:41;;;;;;;;;;;;;;;;;;4899347;29;19926;-83
2023/06/25 06:37:07;;;;;;;;;;;;;;;;;;4899242;29;19908;-83
2023/06/25 06:39:33;;;;;;;;;;;;;;;;;;4899500;29;20364;-84
2023/06/25 06:42:00;;;;;;;;;;;;;;;;;;4899398;29;19911;-84
2023/06/25 06:44:26;;;;;;;;;;;;;;;;;;4899638;29;19911;-83
2023/06/25 06:46:52;;;;;;;;;;;;;;;;;;4898988;29;20328;-84
2023/06/25 06:49:19;;;;;;;;;;;;;;;;;;4899318;29;19958;-83
2023/06/25 06:51:45;;;;;;;;;;;;;;;;;;4899136;29;19914;-83
2023/06/25 06:54:11;;;;;;;;;;;;;;;;;;4899198;29;19921;-85
2023/06/25 06:56:38;;;;;;;;;;;;;;;;;;4899170;29;19913;-82
2023/06/25 06:59:05;;;;;;;;;;;;;;;;;;4899002;29;19911;-84
2023/06/25 07:01:31;;;;;;;;;;;;;;;;;;4898638;29;19911;-84
2023/06/25 07:03:57;;;;;;;;;;;;;;;;;;4882174;29;20422;-84
2023/06/25 07:06:23;;;;;;;;;;;;;;;;;;4899014;29;19912;-84
2023/06/25 07:08:50;;;;;;;;;;;;;;;;;;4898942;29;19907;-84
2023/06/25 07:11:18;;;;;;;;;;;;;;;;;;4894965;29;19908;-86
2023/06/25 07:13:44;;;;;;;;;;;;;;;;;;4880267;29;19990;-85
2023/06/25 07:16:10;;;;;;;;;;;;;;;;;;4884986;29;19962;-85
2023/06/25 07:18:37;;;;;;;;;;;;;;;;;;4870456;29;19912;-85
2023/06/25 07:21:03;;;;;;;;;;;;;;;;;;4881852;29;19963;-77
2023/06/25 07:23:29;;;;;;;;;;;;;;;;;;4887241;29;19920;-85
2023/06/25 07:25:55;;;;;;;;;;;;;;;;;;4879846;29;19907;-89
2023/06/25 07:28:21;;;;;;;;;;;;;;;;;;4898104;29;19914;-85
2023/06/25 07:30:47;;;;;;;;;;;;;;;;;;4897546;29;20308;-85
2023/06/25 07:33:14;;;;;;;;;;;;;;;;;;4881330;29;19912;-84
2023/06/25 07:35:40;;;;;;;;;;;;;;;;;;4898327;29;19930;-84
2023/06/25 07:38:06;;;;;;;;;;;;;;;;;;4898086;29;19907;-85
2023/06/25 07:40:32;;;;;;;;;;;;;;;;;;4897987;29;19913;-85
2023/06/25 07:42:58;;;;;;;;;;;;;;;;;;4897897;29;19914;-85
2023/06/25 07:45:25;;;;;;;;;;;;;;;;;;4897553;29;20299;-86
2023/06/25 07:47:51;;;;;;;;;;;;;;;;;;4880736;29;19914;-86
2023/06/25 07:50:17;;;;;;;;;;;;;;;;;;4897697;29;19911;-86
2023/06/25 07:52:43;;;;;;;;;;;;;;;;;;4897721;29;20284;-87
2023/06/25 07:55:09;;;;;;;;;;;;;;;;;;4897610;29;19963;-88
2023/06/25 07:57:35;;;;;;;;;;;;;;;;;;4880982;29;19907;-87
2023/06/25 08:00:03;;;;;;;;;;;;;;;;;;4897328;29;20373;-88
2023/06/25 08:02:29;;;;;;;;;;;;;;;;;;4897499;29;19908;-88
2023/06/25 08:04:56;;;;;;;;;;;;;;;;;;4897614;29;20427;-88
2023/06/25 08:07:22;;;;;;;;;;;;;;;;;;4897569;29;19966;-87
2023/06/25 08:09:48;;;;;;;;;;;;;;;;;;4897530;29;19918;-88
2023/06/25 08:12:14;;;;;;;;;;;;;;;;;;4897611;29;20353;-88
2023/06/25 08:14:41;;;;;;;;;;;;;;;;;;4897075;29;19915;-88
2023/06/25 08:17:07;;;;;;;;;;;;;;;;;;4897440;29;19907;-87
2023/06/25 08:19:33;;;;;;;;;;;;;;;;;;4897509;29;19911;-86
2023/06/25 08:21:59;;;;;;;;;;;;;;;;;;4897373;29;19907;-87
2023/06/25 08:24:25;;;;;;;;;;;;;;;;;;4897617;29;19943;-85
2023/06/25 08:26:51;;;;;;;;;;;;;;;;;;4897358;29;20316;-85
2023/06/25 08:29:18;;;;;;;;;;;;;;;;;;4897338;29;19913;-85
2023/06/25 08:31:44;;;;;;;;;;;;;;;;;;4897115;29;19918;-85
2023/06/25 08:34:10;;;;;;;;;;;;;;;;;;4897071;29;20369;-87
2023/06/25 08:36:36;;;;;;;;;;;;;;;;;;4897643;29;19908;-86
2023/06/25 08:39:02;;;;;;;;;;;;;;;;;;4897474;29;19914;-86
2023/06/25 08:41:29;;;;;;;;;;;;;;;;;;4897107;29;19917;-85
2023/06/25 08:43:55;;;;;;;;;;;;;;;;;;4896963;29;19911;-84
2023/06/25 08:46:21;;;;;;;;;;;;;;;;;;4897264;29;20299;-84
2023/06/25 08:48:47;;;;;;;;;;;;;;;;;;4897504;29;19915;-85
2023/06/25 08:51:13;;;;;;;;;;;;;;;;;;4897108;29;19913;-87
2023/06/25 08:53:40;;;;;;;;;;;;;;;;;;4897221;29;19908;-87
2023/06/25 08:56:06;;;;;;;;;;;;;;;;;;4897384;29;19914;-87
2023/06/25 08:58:32;;;;;;;;;;;;;;;;;;4880870;29;19911;-87
2023/06/25 09:00:58;;;;;;;;;;;;;;;;;;4901086;29;19912;-86
2023/06/25 09:03:24;;;;;;;;;;;;;;;;;;4900823;29;19918;-88
2023/06/25 09:05:51;;;;;;;;;;;;;;;;;;4900555;29;19962;-86
2023/06/25 09:08:17;;;;;;;;;;;;;;;;;;4900576;29;20297;-88
2023/06/25 09:10:43;;;;;;;;;;;;;;;;;;4900669;29;19911;-88
2023/06/25 09:13:09;;;;;;;;;;;;;;;;;;4900698;29;20365;-87
2023/06/25 09:15:35;;;;;;;;;;;;;;;;;;4900595;29;19922;-87
2023/06/25 09:18:02;;;;;;;;;;;;;;;;;;4900736;29;19907;-92
2023/06/25 09:20:28;;;;;;;;;;;;;;;;;;4883449;29;19913;-88
2023/06/25 09:22:55;;;;;;;;;;;;;;;;;;4900427;29;19923;-90
2023/06/25 09:25:22;;;;;;;;;;;;;;;;;;4899904;29;20285;-91
2023/06/25 09:27:48;;;;;;;;;;;;;;;;;;4900151;29;20279;-91
2023/06/25 09:30:16;;;;;;;;;;;;;;;;;;4900487;29;19908;-91
2023/06/25 09:32:42;;;;;;;;;;;;;;;;;;4900020;29;20345;-91
2023/06/25 09:35:09;;;;;;;;;;;;;;;;;;4900315;29;19908;-89
2023/06/25 09:37:35;;;;;;;;;;;;;;;;;;4900172;29;19915;-90
2023/06/25 09:40:01;;;;;;;;;;;;;;;;;;4899584;29;20072;-90
2023/06/25 09:42:27;;;;;;;;;;;;;;;;;;4900272;29;19908;-91
2023/06/25 09:44:53;;;;;;;;;;;;;;;;;;4900094;29;19922;-91
2023/06/25 09:47:19;;;;;;;;;;;;;;;;;;4883136;29;19907;-90
2023/06/25 09:49:46;;;;;;;;;;;;;;;;;;4899899;29;19911;-90
2023/06/25 09:52:15;;;;;;;;;;;;;;;;;;4882951;29;19914;-90
2023/06/25 09:54:42;;;;;;;;;;;;;;;;;;4899465;29;20407;-69
2023/06/25 09:57:09;;;;;;;;;;;;;;;;;;4899738;29;19976;-69
2023/06/25 09:59:35;;;;;;;;;;;;;;;;;;4899790;29;19912;-69
2023/06/25 10:02:01;;;;;;;;;;;;;;;;;;4899498;29;20364;-69
2023/06/25 10:04:27;;;;;;;;;;;;;;;;;;4899618;29;19921;-69
2023/06/25 10:06:53;;;;;;;;;;;;;;;;;;4899930;29;19917;-69
2023/06/25 10:09:20;;;;;;;;;;;;;;;;;;4899064;29;20296;-73
2023/06/25 10:11:46;;;;;;;;;;;;;;;;;;4899212;29;19907;-72
2023/06/25 10:14:12;;;;;;;;;;;;;;;;;;4899570;29;19913;-74
2023/06/25 10:16:38;;;;;;;;;;;;;;;;;;4899372;29;19937;-72
2023/06/25 10:19:04;;;;;;;;;;;;;;;;;;4899633;29;19966;-72
2023/06/25 10:21:31;;;;;;;;;;;;;;;;;;4899303;29;19907;-73
2023/06/25 10:23:57;;;;;;;;;;;;;;;;;;4898729;29;19919;-80
2023/06/25 10:26:23;;;;;;;;;;;;;;;;;;4899110;29;19907;-69
2023/06/25 10:28:49;;;;;;;;;;;;;;;;;;4899476;29;19913;-73
2023/06/25 10:31:15;;;;;;;;;;;;;;;;;;4898860;29;19912;-74
2023/06/25 10:33:42;;;;;;;;;;;;;;;;;;4899351;29;19914;-80
2023/06/25 10:36:09;;;;;;;;;;;;;;;;;;4899364;29;19907;-81
2023/06/25 10:38:36;;;;;;;;;;;;;;;;;;4898738;29;19908;-82
2023/06/25 10:41:02;;;;;;;;;;;;;;;;;;4898942;29;20300;-82
2023/06/25 10:43:28;;;;;;;;;;;;;;;;;;4899126;29;19911;-86
2023/06/25 10:45:54;;;;;;;;;;;;;;;;;;4898827;29;19917;-76
2023/06/25 10:48:20;;;;;;;;;;;;;;;;;;4899173;29;19907;-75
2023/06/25 10:50:47;;;;;;;;;;;;;;;;;;4898718;29;20300;-75
2023/06/25 10:53:14;;;;;;;;;;;;;;;;;;4898267;29;19907;-75
2023/06/25 10:55:41;;;;;;;;;;;;;;;;;;4898769;29;19907;-74
2023/06/25 10:58:07;;;;;;;;;;;;;;;;;;4898538;29;19912;-73
2023/06/25 11:00:34;;;;;;;;;;;;;;;;;;4898512;29;19954;-68
2023/06/25 11:03:00;;;;;;;;;;;;;;;;;;4898886;29;19914;-75
2023/06/25 11:05:26;;;;;;;;;;;;;;;;;;4898316;29;19919;-73
2023/06/25 11:07:53;;;;;;;;;;;;;;;;;;4898422;29;19907;-75
2023/06/25 11:10:19;;;;;;;;;;;;;;;;;;4898685;29;19913;-77
2023/06/25 11:12:45;;;;;;;;;;;;;;;;;;4898593;29;19967;-77
2023/06/25 11:15:11;;;;;;;;;;;;;;;;;;4898305;29;19912;-71
2023/06/25 11:17:38;;;;;;;;;;;;;;;;;;4898283;29;20344;-70
2023/06/25 11:20:04;;;;;;;;;;;;;;;;;;4898416;29;19913;-76
2023/06/25 11:22:30;;;;;;;;;;;;;;;;;;4880035;29;19919;-74
2023/06/25 11:24:56;;;;;;;;;;;;;;;;;;4898225;29;20395;-77
2023/06/25 11:27:22;;;;;;;;;;;;;;;;;;4898258;29;19907;-79
2023/06/25 11:29:48;;;;;;;;;;;;;;;;;;4898071;29;19908;-75
2023/06/25 11:32:15;;;;;;;;;;;;;;;;;;4884637;29;19918;-85
2023/06/25 11:34:41;;;;;;;;;;;;;;;;;;4894985;29;19907;-84
2023/06/25 11:37:07;;;;;;;;;;;;;;;;;;4897665;29;19914;-81
2023/06/25 11:39:33;;;;;;;;;;;;;;;;;;4898338;29;19914;-81
2023/06/25 11:41:59;;;;;;;;;;;;;;;;;;4896894;29;19907;-77
2023/06/25 11:44:25;;;;;;;;;;;;;;;;;;4897869;29;19916;-71
2023/06/25 11:46:51;;;;;;;;;;;;;;;;;;4897747;29;20281;-76
2023/06/25 11:49:18;;;;;;;;;;;;;;;;;;4897799;29;20372;-76
2023/06/25 11:51:44;;;;;;;;;;;;;;;;;;4897722;29;19913;-75
2023/06/25 11:54:10;;;;;;;;;;;;;;;;;;4896977;29;19907;-76
2023/06/25 11:56:36;;;;;;;;;;;;;;;;;;4897696;29;19907;-72
2023/06/25 11:59:03;;;;;;;;;;;;;;;;;;4897723;29;19907;-75
2023/06/25 12:01:29;;;;;;;;;;;;;;;;;;4897618;29;20313;-71
2023/06/25 12:03:55;;;;;;;;;;;;;;;;;;4897554;29;19919;-75
2023/06/25 12:06:21;;;;;;;;;;;;;;;;;;4897343;29;19966;-75
2023/06/25 12:08:48;;;;;;;;;;;;;;;;;;4897476;29;19908;-78
2023/06/25 12:11:14;;;;;;;;;;;;;;;;;;4897749;29;19907;-76
2023/06/25 12:13:40;;;;;;;;;;;;;;;;;;4897582;29;19907;-76
2023/06/25 12:16:06;;;;;;;;;;;;;;;;;;4897817;29;19907;-76
2023/06/25 12:18:33;;;;;;;;;;;;;;;;;;4897448;29;20369;-77
2023/06/25 12:20:59;;;;;;;;;;;;;;;;;;4897535;29;19908;-77
2023/06/25 12:23:25;;;;;;;;;;;;;;;;;;4897327;29;19945;-77
2023/06/25 12:25:51;;;;;;;;;;;;;;;;;;4897207;29;19915;-77
2023/06/25 12:28:18;;;;;;;;;;;;;;;;;;4878673;29;19930;-77
2023/06/25 12:30:44;;;;;;;;;;;;;;;;;;4880556;29;19911;-76
2023/06/25 12:33:10;;;;;;;;;;;;;;;;;;4897596;29;19907;-76
2023/06/25 12:35:36;;;;;;;;;;;;;;;;;;4900846;29;20333;-75
2023/06/25 12:38:02;;;;;;;;;;;;;;;;;;4901108;29;19907;-75
2023/06/25 12:40:29;;;;;;;;;;;;;;;;;;4901081;29;19912;-76
2023/06/25 12:42:56;;;;;;;;;;;;;;;;;;4901335;29;19911;-76
2023/06/25 12:45:22;;;;;;;;;;;;;;;;;;4901033;29;19916;-76
2023/06/25 12:47:49;;;;;;;;;;;;;;;;;;4901300;29;19907;-76
2023/06/25 12:50:16;;;;;;;;;;;;;;;;;;4900665;29;19917;-76
2023/06/25 12:52:42;;;;;;;;;;;;;;;;;;4900864;29;19912;-79
2023/06/25 12:55:08;;;;;;;;;;;;;;;;;;4900998;29;20382;-73
2023/06/25 12:57:34;;;;;;;;;;;;;;;;;;4900796;29;19918;-73
2023/06/25 13:00:04;;;;;;;;;;;;;;;;;;4900789;29;20364;-73
2023/06/25 13:02:30;;;;;;;;;;;;;;;;;;4900733;29;19907;-73
2023/06/25 13:04:56;;;;;;;;;;;;;;;;;;4900484;29;19937;-73
2023/06/25 13:07:23;;;;;;;;;;;;;;;;;;4900695;29;19913;-73
2023/06/25 13:09:49;;;;;;;;;;;;;;;;;;4900797;29;19908;-73
2023/06/25 13:12:15;;;;;;;;;;;;;;;;;;4900580;29;19914;-73
2023/06/25 13:14:42;;;;;;;;;;;;;;;;;;4900546;29;19911;-72
2023/06/25 13:17:08;;;;;;;;;;;;;;;;;;4900465;29;20295;-73
2023/06/25 13:19:35;;;;;;;;;;;;;;;;;;4900463;29;19911;-73
2023/06/25 13:22:01;;;;;;;;;;;;;;;;;;4900388;29;19955;-73
2023/06/25 13:24:27;;;;;;;;;;;;;;;;;;4900092;29;19941;-73
2023/06/25 13:26:53;;;;;;;;;;;;;;;;;;4883409;29;19914;-73
2023/06/25 13:29:19;;;;;;;;;;;;;;;;;;4883740;29;19911;-73
2023/06/25 13:31:46;;;;;;;;;;;;;;;;;;4899581;29;19911;-73
2023/06/25 13:34:12;;;;;;;;;;;;;;;;;;4900403;29;19930;-73
2023/06/25 13:36:38;;;;;;;;;;;;;;;;;;4883159;29;19907;-73
2023/06/25 13:39:04;;;;;;;;;;;;;;;;;;4900388;29;19929;-73
2023/06/25 13:41:30;;;;;;;;;;;;;;;;;;4900352;29;19911;-73
2023/06/25 13:43:57;;;;;;;;;;;;;;;;;;4900191;29;19907;-73
2023/06/25 13:46:23;;;;;;;;;;;;;;;;;;4898709;29;19918;-73
2023/06/25 13:48:49;;;;;;;;;;;;;;;;;;4899831;29;19915;-73
2023/06/25 13:51:15;;;;;;;;;;;;;;;;;;4900001;29;19934;-73
2023/06/25 13:53:43;;;;;;;;;;;;;;;;;;4899839;29;20300;-73
2023/06/25 13:56:09;;;;;;;;;;;;;;;;;;4900108;29;19907;-73
2023/06/25 13:58:35;;;;;;;;;;;;;;;;;;4899792;29;19911;-73
2023/06/25 14:01:03;;;;;;;;;;;;;;;;;;4899389;29;19911;-72
2023/06/25 14:03:29;;;;;;;;;;;;;;;;;;4899621;29;20337;-73
2023/06/25 14:05:56;;;;;;;;;;;;;;;;;;4899430;29;20285;-73
2023/06/25 14:08:22;;;;;;;;;;;;;;;;;;4899947;29;19918;-73
2023/06/25 14:10:48;;;;;;;;;;;;;;;;;;4899344;29;19970;-73
2023/06/25 14:13:14;;;;;;;;;;;;;;;;;;4899555;29;19907;-73
2023/06/25 14:15:41;;;;;;;;;;;;;;;;;;4882438;29;20400;-73
2023/06/25 14:18:07;;;;;;;;;;;;;;;;;;4899710;29;19907;-73
2023/06/25 14:20:34;;;;;;;;;;;;;;;;;;4899308;29;19907;-73
2023/06/25 14:23:00;;;;;;;;;;;;;;;;;;4899240;29;20377;-72
2023/06/25 14:25:26;;;;;;;;;;;;;;;;;;4899236;29;19921;-73
2023/06/25 14:27:52;;;;;;;;;;;;;;;;;;4898980;29;19913;-73
2023/06/25 14:30:18;;;;;;;;;;;;;;;;;;4898810;29;19918;-73
2023/06/25 14:32:45;;;;;;;;;;;;;;;;;;4898986;29;19915;-73
2023/06/25 14:35:12;;;;;;;;;;;;;;;;;;4899067;29;20395;-72
2023/06/25 14:37:38;;;;;;;;;;;;;;;;;;4898981;29;19907;-72
2023/06/25 14:40:04;;;;;;;;;;;;;;;;;;4898916;29;19922;-72
2023/06/25 14:42:30;;;;;;;;;;;;;;;;;;4898820;29;19911;-73
2023/06/25 14:44:58;;;;;;;;;;;;;;;;;;4898569;29;20383;-72
2023/06/25 14:47:24;;;;;;;;;;;;;;;;;;4898792;29;19917;-73
2023/06/25 14:49:50;;;;;;;;;;;;;;;;;;4899070;29;19955;-73
2023/06/25 14:52:16;;;;;;;;;;;;;;;;;;4882156;29;19914;-73
2023/06/25 14:54:42;;;;;;;;;;;;;;;;;;4898898;29;19907;-73
2023/06/25 14:57:09;;;;;;;;;;;;;;;;;;4898533;29;19959;-72
2023/06/25 14:59:35;;;;;;;;;;;;;;;;;;4881580;29;19911;-72
2023/06/25 15:02:01;;;;;;;;;;;;;;;;;;4898864;29;19945;-73
2023/06/25 15:04:28;;;;;;;;;;;;;;;;;;4898418;29;19930;-72
2023/06/25 15:06:55;;;;;;;;;;;;;;;;;;4898629;29;19914;-73
2023/06/25 15:09:21;;;;;;;;;;;;;;;;;;4898472;29;19907;-73
2023/06/25 15:11:47;;;;;;;;;;;;;;;;;;4898400;29;19918;-72
2023/06/25 15:14:13;;;;;;;;;;;;;;;;;;4898355;29;19967;-72
2023/06/25 15:16:39;;;;;;;;;;;;;;;;;;4898527;29;19907;-72
2023/06/25 15:19:06;;;;;;;;;;;;;;;;;;4898621;29;19908;-73
2023/06/25 15:21:32;;;;;;;;;;;;;;;;;;4881713;29;19911;-72
2023/06/25 15:23:58;;;;;;;;;;;;;;;;;;4897961;29;19919;-72
2023/06/25 15:26:24;;;;;;;;;;;;;;;;;;4898373;29;19922;-73
2023/06/25 15:28:51;;;;;;;;;;;;;;;;;;4898149;29;19917;-73
2023/06/25 15:31:17;;;;;;;;;;;;;;;;;;4881153;29;19913;-72
2023/06/25 15:33:43;;;;;;;;;;;;;;;;;;4898075;29;19912;-73
2023/06/25 15:36:09;;;;;;;;;;;;;;;;;;4881152;29;19911;-73
2023/06/25 15:38:35;;;;;;;;;;;;;;;;;;4897873;29;19922;-72
2023/06/25 15:41:01;;;;;;;;;;;;;;;;;;4897927;29;19907;-73
2023/06/25 15:43:28;;;;;;;;;;;;;;;;;;4897952;29;19912;-73
2023/06/25 15:45:54;;;;;;;;;;;;;;;;;;4897764;29;19919;-72
2023/06/25 15:48:20;;;;;;;;;;;;;;;;;;4898168;29;19914;-73
2023/06/25 15:50:46;;;;;;;;;;;;;;;;;;4897647;29;19914;-73
2023/06/25 15:53:14;;;;;;;;;;;;;;;;;;4897697;29;20357;-73
2023/06/25 15:55:41;;;;;;;;;;;;;;;;;;4897829;29;19914;-73
2023/06/25 15:58:07;;;;;;;;;;;;;;;;;;4897271;29;20340;-73
2023/06/25 16:00:35;;;;;;;;;;;;;;;;;;4897579;29;19914;-72
2023/06/25 16:03:02;;;;;;;;;;;;;;;;;;4898081;29;19917;-73
2023/06/25 16:05:28;;;;;;;;;;;;;;;;;;4897608;29;19941;-73
2023/06/25 16:07:54;;;;;;;;;;;;;;;;;;4897108;29;19962;-72
2023/06/25 16:10:20;;;;;;;;;;;;;;;;;;4897496;29;20372;-73
2023/06/25 16:12:46;;;;;;;;;;;;;;;;;;4897204;29;19907;-73
2023/06/25 16:15:13;;;;;;;;;;;;;;;;;;4897508;29;19914;-73
2023/06/25 16:17:39;;;;;;;;;;;;;;;;;;4897572;29;19914;-72
2023/06/25 16:20:05;;;;;;;;;;;;;;;;;;4897656;29;20378;-73
2023/06/25 16:22:31;;;;;;;;;;;;;;;;;;4897354;29;19918;-73
2023/06/25 16:24:57;;;;;;;;;;;;;;;;;;4897455;29;19915;-72
2023/06/25 16:27:24;;;;;;;;;;;;;;;;;;4897081;29;19911;-73
2023/06/25 16:29:51;;;;;;;;;;;;;;;;;;4897309;29;19911;-72
2023/06/25 16:32:17;;;;;;;;;;;;;;;;;;4897278;29;20265;-73
2023/06/25 16:34:43;;;;;;;;;;;;;;;;;;4897211;29;19918;-73
2023/06/25 16:37:09;;;;;;;;;;;;;;;;;;4880611;29;19907;-73
2023/06/25 16:39:35;;;;;;;;;;;;;;;;;;4880479;29;19907;-72